This is the latest recevied weather packets stored in our database for station/object BMCB-35. If no packets are shown the sender has not sent any weather packets the latest 10 day(s).
| Time | Temp. | Humidity | Pressure | Rain* | Wind** | Luminosity | Snow |
|---|---|---|---|---|---|---|---|
| 1778076605 | 12.78° C | 81% | 1007.9 hPa | 0 mm | - | 304 W/m² | - |
| 1778075437 | 12.22° C | 82% | 1008 hPa | 0 mm | - | 235 W/m² | - |
| 1778072411 | 12.22° C | 83% | 1007.9 hPa | 0 mm | - | 98 W/m² | - |
| 1778071215 | 12.78° C | 84% | 1007.8 hPa | 0 mm | - | 95 W/m² | - |
| 1778064636 | 13.33° C | 85% | 1007 hPa | 0 mm | - | 226 W/m² | - |
| 1778064031 | 12.78° C | 87% | 1006.9 hPa | 0 mm | - | 292 W/m² | - |
| 1778063436 | 13.33° C | 88% | 1006.8 hPa | 0 mm | - | 214 W/m² | - |
| 1778062204 | 13.33° C | 90% | 1006.6 hPa | 0.25 mm | - | 249 W/m² | - |
| 1778059839 | 12.78° C | 95% | 1006.4 hPa | 0.25 mm | - | 231 W/m² | - |
| 1778059240 | 12.78° C | 95% | 1006.4 hPa | 0.25 mm | - | 231 W/m² | - |
| 1778059234 | 12.78° C | 96% | 1006.3 hPa | 0 mm | - | 258 W/m² | - |
| 1778057444 | 12.78° C | 93% | 1006.2 hPa | 0 mm | - | 409 W/m² | - |
| 1778049036 | 11.11° C | 98% | 1006.1 hPa | 0.51 mm | - | 134 W/m² | - |
| 1778048437 | 11.11° C | 99% | 1006.1 hPa | 0.51 mm | - | 68 W/m² | - |
| 1778044805 | 10.56° C | 98% | 1006 hPa | 0 mm | - | 27 W/m² | - |
| 1778042417 | 10.56° C | 97% | 1005.8 hPa | 0 mm | - | 9 W/m² | - |
| 1778041824 | 10.56° C | 97% | 1006 hPa | 0 mm | - | 0 W/m² | - |
| 1778038238 | 10.56° C | 97% | 1006.4 hPa | 0 mm | - | 0 W/m² | - |
| 1778037638 | 10.56° C | 97% | 1006.4 hPa | 0 mm | - | 0 W/m² | - |
| 1778037003 | 10.56° C | 98% | 1006.5 hPa | 0 mm | - | 0 W/m² | - |
| 1778034643 | 11.11° C | 99% | 1006.3 hPa | 0 mm | - | 0 W/m² | - |
| 1778032811 | 11.11° C | 99% | 1006.3 hPa | 0 mm | - | 0 W/m² | - |
| 1778031639 | 11.67° C | 99% | 1006.4 hPa | 0 mm | - | 0 W/m² | - |
| 1778026842 | 11.11° C | 10% | 1007.3 hPa | 0.25 mm | - | - | - |
| 1778025611 | 10.56° C | 10% | 1007.4 hPa | 0 mm | - | - | - |
* Rain latest hour (hover to see other rain measurements)
** Current wind speed in m/s (hover to see current wind gust speed)